createdAt,value
2023-04-16T12:38:03.698Z,27.77
2023-04-16T12:40:32.991Z,28.13
2023-04-16T12:43:02.259Z,30.23
2023-04-16T12:45:34.092Z,29.67
2023-04-16T12:48:03.386Z,28.40
2023-04-16T12:50:32.817Z,32.60
2023-04-16T12:53:02.300Z,31.63
2023-04-16T12:55:31.620Z,32.03
2023-04-16T12:58:01.190Z,30.83
2023-04-16T13:00:30.467Z,27.53
2023-04-16T13:03:02.451Z,30.90
2023-04-16T13:05:31.835Z,29.67
2023-04-16T13:08:01.337Z,29.50
2023-04-16T13:10:30.624Z,28.00
2023-04-16T13:12:59.934Z,28.23
2023-04-16T13:15:29.333Z,30.83
2023-04-16T13:17:58.681Z,28.63
2023-04-16T13:20:30.803Z,27.90
2023-04-16T13:23:00.200Z,29.70
2023-04-16T13:25:30.555Z,29.63
2023-04-16T13:27:59.961Z,27.60
2023-04-16T13:30:29.508Z,29.17
2023-04-16T13:32:58.851Z,27.37
2023-04-16T13:35:32.134Z,28.40
2023-04-16T13:38:01.510Z,25.60
2023-04-16T13:40:30.983Z,26.80
2023-04-16T13:43:00.274Z,28.40
2023-04-16T13:45:29.649Z,26.17
2023-04-16T13:47:58.965Z,27.93
2023-04-16T13:50:30.942Z,26.60
2023-04-16T13:53:00.857Z,26.05
2023-04-16T13:55:30.116Z,22.77
2023-04-16T13:57:59.401Z,23.33
2023-04-16T14:00:28.802Z,25.10
2023-04-16T14:02:58.247Z,23.37
2023-04-16T14:05:27.666Z,21.03
2023-04-16T14:07:59.507Z,20.47
2023-04-16T14:10:28.864Z,19.42
2023-04-16T14:12:58.130Z,21.30
2023-04-16T14:15:29.823Z,21.27
2023-04-16T14:17:59.116Z,19.33
2023-04-16T14:20:28.422Z,20.20
2023-04-16T14:23:03.670Z,20.58
2023-04-16T14:25:32.946Z,18.77
2023-04-16T14:28:02.257Z,19.90
2023-04-16T14:30:31.649Z,20.60
2023-04-16T14:33:01.021Z,23.97
2023-04-16T14:35:30.692Z,18.87
2023-04-16T14:38:00.480Z,18.80
2023-04-16T14:40:32.659Z,17.83
2023-04-16T14:43:01.958Z,18.10
2023-04-16T14:45:32.603Z,18.73
2023-04-16T14:48:02.273Z,19.07
2023-04-16T14:50:31.564Z,18.57
2023-04-16T14:53:00.955Z,19.67
2023-04-16T14:55:32.829Z,18.87
2023-04-16T14:58:02.343Z,19.80
2023-04-16T15:00:31.744Z,20.57
2023-04-16T15:03:01.296Z,19.00
2023-04-16T15:05:30.727Z,19.47
2023-04-16T15:08:00.755Z,19.50
2023-04-16T15:10:30.137Z,18.97
2023-04-16T15:13:02.089Z,18.87
2023-04-16T15:15:31.400Z,19.70
2023-04-16T15:18:00.859Z,20.17
2023-04-16T15:20:30.144Z,18.33
2023-04-16T15:22:59.446Z,19.40
2023-04-16T15:25:29.199Z,19.17
2023-04-16T15:27:59.423Z,16.93
2023-04-16T15:30:31.412Z,18.20
2023-04-16T15:33:00.892Z,17.45
2023-04-16T15:35:30.180Z,18.57
2023-04-16T15:37:59.506Z,19.80
2023-04-16T15:40:28.752Z,17.93
2023-04-16T15:42:58.035Z,18.77
2023-04-16T15:45:27.383Z,20.57
2023-04-16T15:47:59.564Z,19.93
2023-04-16T15:50:29.115Z,16.77
2023-04-16T15:52:58.429Z,18.33
2023-04-16T15:55:28.149Z,18.23
2023-04-16T15:57:57.381Z,18.13
2023-04-16T16:00:27.849Z,16.57
2023-04-16T16:02:59.907Z,16.50
2023-04-16T16:05:29.283Z,16.15
2023-04-16T16:08:01.816Z,16.07
2023-04-16T16:10:31.217Z,17.30
2023-04-16T16:13:05.388Z,15.43
2023-04-16T16:15:35.218Z,14.87
2023-04-16T16:18:07.292Z,14.90
2023-04-16T16:20:37.299Z,14.13
2023-04-16T16:23:06.578Z,14.43
2023-04-16T16:25:35.856Z,13.63
2023-04-16T16:28:06.708Z,13.23
2023-04-16T16:30:36.257Z,13.10
2023-04-16T16:33:08.220Z,12.83
2023-04-16T16:35:37.516Z,13.10
2023-04-16T16:38:06.837Z,11.30
2023-04-16T16:40:36.189Z,14.13
2023-04-16T16:43:05.517Z,12.67
